sensor_id;sensor_type;location;lat;lon;timestamp;temperature;humidity
43920;DHT22;29578;51.946;5.874;2022-12-16T00:00:37;-2.50;90.60
43920;DHT22;29578;51.946;5.874;2022-12-16T00:03:03;-2.40;90.60
43920;DHT22;29578;51.946;5.874;2022-12-16T00:05:29;-2.40;90.50
43920;DHT22;29578;51.946;5.874;2022-12-16T00:07:54;-2.40;90.50
43920;DHT22;29578;51.946;5.874;2022-12-16T00:10:21;-2.30;90.50
43920;DHT22;29578;51.946;5.874;2022-12-16T00:12:46;-2.30;90.40
43920;DHT22;29578;51.946;5.874;2022-12-16T00:15:12;-2.30;90.40
43920;DHT22;29578;51.946;5.874;2022-12-16T00:17:38;-2.30;90.30
43920;DHT22;29578;51.946;5.874;2022-12-16T00:20:04;-2.20;90.30
43920;DHT22;29578;51.946;5.874;2022-12-16T00:22:30;-2.20;90.30
43920;DHT22;29578;51.946;5.874;2022-12-16T00:24:56;-2.10;90.30
43920;DHT22;29578;51.946;5.874;2022-12-16T00:27:22;-2.10;90.30
43920;DHT22;29578;51.946;5.874;2022-12-16T00:29:47;-2.10;90.30
43920;DHT22;29578;51.946;5.874;2022-12-16T00:32:13;-2.00;90.30
43920;DHT22;29578;51.946;5.874;2022-12-16T00:34:39;-2.00;90.30
43920;DHT22;29578;51.946;5.874;2022-12-16T00:37:04;-2.00;90.30
43920;DHT22;29578;51.946;5.874;2022-12-16T00:39:30;-2.00;90.20
43920;DHT22;29578;51.946;5.874;2022-12-16T00:41:56;-2.00;90.20
43920;DHT22;29578;51.946;5.874;2022-12-16T00:44:21;-1.90;90.20
43920;DHT22;29578;51.946;5.874;2022-12-16T00:46:47;-1.90;90.20
43920;DHT22;29578;51.946;5.874;2022-12-16T00:49:13;-1.90;90.20
43920;DHT22;29578;51.946;5.874;2022-12-16T00:51:39;-1.90;90.20
43920;DHT22;29578;51.946;5.874;2022-12-16T00:54:05;-1.90;90.20
43920;DHT22;29578;51.946;5.874;2022-12-16T00:56:31;-1.80;90.50
43920;DHT22;29578;51.946;5.874;2022-12-16T00:58:56;-1.90;90.20
43920;DHT22;29578;51.946;5.874;2022-12-16T01:01:22;-1.90;90.20
43920;DHT22;29578;51.946;5.874;2022-12-16T01:03:47;-1.90;90.20
43920;DHT22;29578;51.946;5.874;2022-12-16T01:06:15;-1.80;90.20
43920;DHT22;29578;51.946;5.874;2022-12-16T01:08:41;-1.80;90.30
43920;DHT22;29578;51.946;5.874;2022-12-16T01:11:16;-1.80;90.30
43920;DHT22;29578;51.946;5.874;2022-12-16T01:13:42;-1.80;90.30
43920;DHT22;29578;51.946;5.874;2022-12-16T01:16:08;-1.70;90.30
43920;DHT22;29578;51.946;5.874;2022-12-16T01:18:34;-1.80;90.20
43920;DHT22;29578;51.946;5.874;2022-12-16T01:21:02;-1.70;90.30
43920;DHT22;29578;51.946;5.874;2022-12-16T01:23:28;-1.70;90.20
43920;DHT22;29578;51.946;5.874;2022-12-16T01:25:57;-1.70;90.20
43920;DHT22;29578;51.946;5.874;2022-12-16T01:28:24;-1.70;90.20
43920;DHT22;29578;51.946;5.874;2022-12-16T01:30:58;-1.70;90.50
43920;DHT22;29578;51.946;5.874;2022-12-16T01:33:27;-1.60;90.20
43920;DHT22;29578;51.946;5.874;2022-12-16T01:36:04;-1.60;90.20
43920;DHT22;29578;51.946;5.874;2022-12-16T01:38:31;-1.60;90.20
43920;DHT22;29578;51.946;5.874;2022-12-16T01:40:57;-1.40;90.20
43920;DHT22;29578;51.946;5.874;2022-12-16T01:43:26;-1.50;90.20
43920;DHT22;29578;51.946;5.874;2022-12-16T01:45:57;-1.50;90.20
43920;DHT22;29578;51.946;5.874;2022-12-16T01:48:38;-1.50;90.20
43920;DHT22;29578;51.946;5.874;2022-12-16T01:51:09;-1.30;90.20
43920;DHT22;29578;51.946;5.874;2022-12-16T01:53:37;-1.50;90.10
43920;DHT22;29578;51.946;5.874;2022-12-16T01:56:05;-1.40;90.20
43920;DHT22;29578;51.946;5.874;2022-12-16T01:58:33;-1.50;90.10
43920;DHT22;29578;51.946;5.874;2022-12-16T02:01:01;-1.30;90.20
43920;DHT22;29578;51.946;5.874;2022-12-16T02:03:30;-1.40;90.10
43920;DHT22;29578;51.946;5.874;2022-12-16T02:05:58;-1.40;90.10
43920;DHT22;29578;51.946;5.874;2022-12-16T02:08:24;-1.30;90.40
43920;DHT22;29578;51.946;5.874;2022-12-16T02:11:08;-1.30;90.10
43920;DHT22;29578;51.946;5.874;2022-12-16T02:13:59;-1.30;90.20
43920;DHT22;29578;51.946;5.874;2022-12-16T02:22:33;-1.30;90.10
43920;DHT22;29578;51.946;5.874;2022-12-16T02:25:36;-1.20;90.10
43920;DHT22;29578;51.946;5.874;2022-12-16T02:31:13;-1.20;90.10
43920;DHT22;29578;51.946;5.874;2022-12-16T02:33:58;-1.20;90.10
43920;DHT22;29578;51.946;5.874;2022-12-16T02:36:40;-1.10;90.20
43920;DHT22;29578;51.946;5.874;2022-12-16T02:39:13;-1.20;90.10
43920;DHT22;29578;51.946;5.874;2022-12-16T02:41:55;-1.20;90.40
43920;DHT22;29578;51.946;5.874;2022-12-16T02:44:35;-1.20;90.10
43920;DHT22;29578;51.946;5.874;2022-12-16T02:47:04;-1.20;90.10
43920;DHT22;29578;51.946;5.874;2022-12-16T02:49:44;-1.10;90.20
43920;DHT22;29578;51.946;5.874;2022-12-16T02:52:11;-1.10;90.20
43920;DHT22;29578;51.946;5.874;2022-12-16T02:54:37;-1.10;90.20
43920;DHT22;29578;51.946;5.874;2022-12-16T02:57:21;-1.20;90.10
43920;DHT22;29578;51.946;5.874;2022-12-16T03:00:04;-1.10;90.10
43920;DHT22;29578;51.946;5.874;2022-12-16T03:05:38;-1.10;90.20
43920;DHT22;29578;51.946;5.874;2022-12-16T03:08:09;-1.10;90.40
43920;DHT22;29578;51.946;5.874;2022-12-16T03:10:40;-1.00;90.20
43920;DHT22;29578;51.946;5.874;2022-12-16T03:13:08;-0.90;90.20
43920;DHT22;29578;51.946;5.874;2022-12-16T03:15:35;-1.00;90.20
43920;DHT22;29578;51.946;5.874;2022-12-16T03:18:03;-1.00;90.20
43920;DHT22;29578;51.946;5.874;2022-12-16T03:20:43;-1.00;90.10
43920;DHT22;29578;51.946;5.874;2022-12-16T03:23:18;-1.00;90.10
43920;DHT22;29578;51.946;5.874;2022-12-16T03:25:46;-1.00;90.10
43920;DHT22;29578;51.946;5.874;2022-12-16T03:28:34;-0.90;90.20
43920;DHT22;29578;51.946;5.874;2022-12-16T03:31:15;-0.90;90.20
43920;DHT22;29578;51.946;5.874;2022-12-16T03:33:49;-0.90;90.20
43920;DHT22;29578;51.946;5.874;2022-12-16T03:36:20;-0.90;90.20
43920;DHT22;29578;51.946;5.874;2022-12-16T03:38:47;-0.90;90.10
43920;DHT22;29578;51.946;5.874;2022-12-16T03:41:16;-0.90;90.20
43920;DHT22;29578;51.946;5.874;2022-12-16T03:43:43;-1.00;90.40
43920;DHT22;29578;51.946;5.874;2022-12-16T03:46:09;-0.90;90.20
43920;DHT22;29578;51.946;5.874;2022-12-16T03:48:44;-0.90;90.50
43920;DHT22;29578;51.946;5.874;2022-12-16T03:51:10;-0.90;90.20
43920;DHT22;29578;51.946;5.874;2022-12-16T03:53:36;-0.90;90.20
43920;DHT22;29578;51.946;5.874;2022-12-16T03:56:02;-0.90;90.20
43920;DHT22;29578;51.946;5.874;2022-12-16T03:58:27;-0.90;90.10
43920;DHT22;29578;51.946;5.874;2022-12-16T04:00:53;-0.90;90.20
43920;DHT22;29578;51.946;5.874;2022-12-16T04:03:18;-0.90;90.20
43920;DHT22;29578;51.946;5.874;2022-12-16T04:05:47;-0.90;90.20
43920;DHT22;29578;51.946;5.874;2022-12-16T04:08:13;-0.90;90.20
43920;DHT22;29578;51.946;5.874;2022-12-16T04:10:39;-0.90;90.20
43920;DHT22;29578;51.946;5.874;2022-12-16T04:13:15;-0.80;90.20
43920;DHT22;29578;51.946;5.874;2022-12-16T04:15:55;-0.90;90.20
43920;DHT22;29578;51.946;5.874;2022-12-16T04:18:36;-0.80;90.20
43920;DHT22;29578;51.946;5.874;2022-12-16T04:21:16;-0.90;90.20
43920;DHT22;29578;51.946;5.874;2022-12-16T04:23:56;-0.80;90.20
43920;DHT22;29578;51.946;5.874;2022-12-16T04:26:36;-0.80;90.20
43920;DHT22;29578;51.946;5.874;2022-12-16T04:29:16;-0.70;90.20
43920;DHT22;29578;51.946;5.874;2022-12-16T04:31:42;-0.70;90.20
43920;DHT22;29578;51.946;5.874;2022-12-16T04:34:08;-0.70;90.20
43920;DHT22;29578;51.946;5.874;2022-12-16T04:36:47;-0.70;90.20
43920;DHT22;29578;51.946;5.874;2022-12-16T04:39:27;-0.70;90.20
43920;DHT22;29578;51.946;5.874;2022-12-16T04:42:07;-0.70;90.20
43920;DHT22;29578;51.946;5.874;2022-12-16T04:44:48;-0.70;90.20
43920;DHT22;29578;51.946;5.874;2022-12-16T04:47:28;-0.70;90.20
43920;DHT22;29578;51.946;5.874;2022-12-16T04:50:08;-0.80;90.20
43920;DHT22;29578;51.946;5.874;2022-12-16T04:52:50;-0.70;90.30
43920;DHT22;29578;51.946;5.874;2022-12-16T04:55:29;-0.80;90.20
43920;DHT22;29578;51.946;5.874;2022-12-16T04:58:09;-0.80;90.30
43920;DHT22;29578;51.946;5.874;2022-12-16T05:00:49;-0.80;90.30
43920;DHT22;29578;51.946;5.874;2022-12-16T05:03:29;-0.80;90.30
43920;DHT22;29578;51.946;5.874;2022-12-16T05:06:10;-0.80;90.30
43920;DHT22;29578;51.946;5.874;2022-12-16T05:08:50;-0.80;90.40
43920;DHT22;29578;51.946;5.874;2022-12-16T05:11:30;-0.80;90.30
43920;DHT22;29578;51.946;5.874;2022-12-16T05:14:10;-0.80;90.50
43920;DHT22;29578;51.946;5.874;2022-12-16T05:16:54;-0.80;90.40
43920;DHT22;29578;51.946;5.874;2022-12-16T05:19:34;-0.90;90.40
43920;DHT22;29578;51.946;5.874;2022-12-16T05:22:15;-0.80;90.50
43920;DHT22;29578;51.946;5.874;2022-12-16T05:24:55;-0.80;90.50
43920;DHT22;29578;51.946;5.874;2022-12-16T05:27:36;-0.80;90.50
43920;DHT22;29578;51.946;5.874;2022-12-16T05:30:16;-0.70;90.50
43920;DHT22;29578;51.946;5.874;2022-12-16T05:32:56;-0.70;90.50
43920;DHT22;29578;51.946;5.874;2022-12-16T05:35:36;-0.70;90.50
43920;DHT22;29578;51.946;5.874;2022-12-16T05:38:16;-0.70;90.50
43920;DHT22;29578;51.946;5.874;2022-12-16T05:40:57;-0.70;90.50
43920;DHT22;29578;51.946;5.874;2022-12-16T05:43:37;-0.70;90.50
43920;DHT22;29578;51.946;5.874;2022-12-16T05:46:17;-0.70;90.50
43920;DHT22;29578;51.946;5.874;2022-12-16T05:48:57;-0.70;90.50
43920;DHT22;29578;51.946;5.874;2022-12-16T05:51:37;-0.80;90.50
43920;DHT22;29578;51.946;5.874;2022-12-16T05:54:17;-0.70;90.60
43920;DHT22;29578;51.946;5.874;2022-12-16T05:56:57;-0.70;90.60
43920;DHT22;29578;51.946;5.874;2022-12-16T05:59:37;-0.80;90.60
43920;DHT22;29578;51.946;5.874;2022-12-16T06:02:18;-0.80;90.60
43920;DHT22;29578;51.946;5.874;2022-12-16T06:04:58;-0.80;90.60
43920;DHT22;29578;51.946;5.874;2022-12-16T06:07:38;-0.70;90.70
43920;DHT22;29578;51.946;5.874;2022-12-16T06:10:18;-0.80;90.70
43920;DHT22;29578;51.946;5.874;2022-12-16T06:12:58;-0.90;90.70
43920;DHT22;29578;51.946;5.874;2022-12-16T06:15:38;-0.90;90.70
43920;DHT22;29578;51.946;5.874;2022-12-16T06:18:19;-0.70;90.80
43920;DHT22;29578;51.946;5.874;2022-12-16T06:20:59;-0.90;90.80
43920;DHT22;29578;51.946;5.874;2022-12-16T06:23:39;-0.90;90.80
43920;DHT22;29578;51.946;5.874;2022-12-16T06:26:19;-0.90;90.80
43920;DHT22;29578;51.946;5.874;2022-12-16T06:28:59;-1.00;90.80
43920;DHT22;29578;51.946;5.874;2022-12-16T06:31:39;-1.00;90.90
43920;DHT22;29578;51.946;5.874;2022-12-16T06:34:20;-1.10;90.90
43920;DHT22;29578;51.946;5.874;2022-12-16T06:37:00;-1.10;91.00
43920;DHT22;29578;51.946;5.874;2022-12-16T06:39:40;-1.20;91.00
43920;DHT22;29578;51.946;5.874;2022-12-16T06:42:20;-1.20;91.00
43920;DHT22;29578;51.946;5.874;2022-12-16T06:45:00;-1.10;91.10
43920;DHT22;29578;51.946;5.874;2022-12-16T06:47:42;-1.30;91.10
43920;DHT22;29578;51.946;5.874;2022-12-16T06:50:20;-1.30;91.10
43920;DHT22;29578;51.946;5.874;2022-12-16T06:53:01;-1.40;91.10
43920;DHT22;29578;51.946;5.874;2022-12-16T06:55:41;-1.40;91.20
43920;DHT22;29578;51.946;5.874;2022-12-16T06:58:21;-1.50;91.20
43920;DHT22;29578;51.946;5.874;2022-12-16T07:01:01;-1.50;91.20
43920;DHT22;29578;51.946;5.874;2022-12-16T07:03:41;-1.60;91.20
43920;DHT22;29578;51.946;5.874;2022-12-16T07:06:21;-1.60;91.20
43920;DHT22;29578;51.946;5.874;2022-12-16T07:09:02;-1.70;91.20
43920;DHT22;29578;51.946;5.874;2022-12-16T07:11:42;-1.70;91.30
43920;DHT22;29578;51.946;5.874;2022-12-16T07:14:22;-1.80;91.30
43920;DHT22;29578;51.946;5.874;2022-12-16T07:17:02;-1.80;91.40
43920;DHT22;29578;51.946;5.874;2022-12-16T07:19:42;-1.80;91.40
43920;DHT22;29578;51.946;5.874;2022-12-16T07:22:26;-1.60;91.40
43920;DHT22;29578;51.946;5.874;2022-12-16T07:25:10;-1.70;91.30
43920;DHT22;29578;51.946;5.874;2022-12-16T07:27:47;-1.70;91.30
43920;DHT22;29578;51.946;5.874;2022-12-16T07:30:26;-1.70;91.30
43920;DHT22;29578;51.946;5.874;2022-12-16T07:33:07;-1.70;91.20
43920;DHT22;29578;51.946;5.874;2022-12-16T07:35:47;-1.70;91.50
43920;DHT22;29578;51.946;5.874;2022-12-16T07:38:27;-1.70;91.20
43920;DHT22;29578;51.946;5.874;2022-12-16T07:41:07;-1.80;91.20
43920;DHT22;29578;51.946;5.874;2022-12-16T07:43:47;-1.80;91.30
43920;DHT22;29578;51.946;5.874;2022-12-16T07:46:27;-1.80;91.30
43920;DHT22;29578;51.946;5.874;2022-12-16T08:10:57;-2.00;91.40
43920;DHT22;29578;51.946;5.874;2022-12-16T08:13:39;-1.90;91.30
43920;DHT22;29578;51.946;5.874;2022-12-16T08:16:19;-2.10;91.30
43920;DHT22;29578;51.946;5.874;2022-12-16T08:18:59;-2.00;91.40
43920;DHT22;29578;51.946;5.874;2022-12-16T08:21:40;-2.00;91.40
43920;DHT22;29578;51.946;5.874;2022-12-16T08:24:20;-2.10;91.40
43920;DHT22;29578;51.946;5.874;2022-12-16T08:27:00;-2.00;91.40
43920;DHT22;29578;51.946;5.874;2022-12-16T08:29:40;-2.00;91.40
43920;DHT22;29578;51.946;5.874;2022-12-16T08:32:20;-1.90;91.30
43920;DHT22;29578;51.946;5.874;2022-12-16T08:35:01;-1.90;91.30
43920;DHT22;29578;51.946;5.874;2022-12-16T08:37:41;-1.80;91.30
43920;DHT22;29578;51.946;5.874;2022-12-16T08:40:23;-1.80;91.30
43920;DHT22;29578;51.946;5.874;2022-12-16T08:43:01;-1.80;91.20
43920;DHT22;29578;51.946;5.874;2022-12-16T08:45:42;-1.70;91.20
43920;DHT22;29578;51.946;5.874;2022-12-16T08:48:21;-1.60;91.20
43920;DHT22;29578;51.946;5.874;2022-12-16T08:51:03;-1.50;91.10
43920;DHT22;29578;51.946;5.874;2022-12-16T08:53:41;-1.50;91.00
43920;DHT22;29578;51.946;5.874;2022-12-16T08:56:22;-1.60;91.00
43920;DHT22;29578;51.946;5.874;2022-12-16T08:59:02;-1.50;91.00
43920;DHT22;29578;51.946;5.874;2022-12-16T09:01:42;-1.50;91.00
43920;DHT22;29578;51.946;5.874;2022-12-16T09:08:00;-1.30;91.00
43920;DHT22;29578;51.946;5.874;2022-12-16T09:10:48;-1.30;91.00
43920;DHT22;29578;51.946;5.874;2022-12-16T09:13:33;-1.30;90.90
43920;DHT22;29578;51.946;5.874;2022-12-16T09:16:15;-1.10;90.90
43920;DHT22;29578;51.946;5.874;2022-12-16T09:18:54;-1.10;90.80
43920;DHT22;29578;51.946;5.874;2022-12-16T09:21:33;-1.10;90.80
43920;DHT22;29578;51.946;5.874;2022-12-16T09:24:13;-1.10;90.80
43920;DHT22;29578;51.946;5.874;2022-12-16T09:29:58;-0.90;90.80
43920;DHT22;29578;51.946;5.874;2022-12-16T09:32:41;-0.80;90.80
43920;DHT22;29578;51.946;5.874;2022-12-16T09:35:18;-0.70;90.70
43920;DHT22;29578;51.946;5.874;2022-12-16T09:37:58;-0.70;90.60
43920;DHT22;29578;51.946;5.874;2022-12-16T09:40:40;-0.60;90.60
43920;DHT22;29578;51.946;5.874;2022-12-16T09:43:48;-0.50;90.60
43920;DHT22;29578;51.946;5.874;2022-12-16T09:46:43;-0.50;90.50
43920;DHT22;29578;51.946;5.874;2022-12-16T09:49:46;-0.40;90.50
43920;DHT22;29578;51.946;5.874;2022-12-16T09:52:33;-0.30;90.50
43920;DHT22;29578;51.946;5.874;2022-12-16T09:55:37;-0.30;90.40
43920;DHT22;29578;51.946;5.874;2022-12-16T09:58:32;-0.30;90.50
43920;DHT22;29578;51.946;5.874;2022-12-16T10:01:20;-0.30;90.40
43920;DHT22;29578;51.946;5.874;2022-12-16T10:04:00;-0.20;90.50
43920;DHT22;29578;51.946;5.874;2022-12-16T10:06:45;-0.10;90.40
43920;DHT22;29578;51.946;5.874;2022-12-16T10:16:07;-0.10;90.40
43920;DHT22;29578;51.946;5.874;2022-12-16T10:19:17;-0.10;90.40
43920;DHT22;29578;51.946;5.874;2022-12-16T10:25:18;0.10;90.70
43920;DHT22;29578;51.946;5.874;2022-12-16T10:28:14;0.10;90.40
43920;DHT22;29578;51.946;5.874;2022-12-16T10:31:01;0.10;90.40
43920;DHT22;29578;51.946;5.874;2022-12-16T10:33:38;0.20;90.40
43920;DHT22;29578;51.946;5.874;2022-12-16T10:36:21;0.20;90.40
43920;DHT22;29578;51.946;5.874;2022-12-16T10:39:12;0.20;90.40
43920;DHT22;29578;51.946;5.874;2022-12-16T10:41:59;0.30;90.40
43920;DHT22;29578;51.946;5.874;2022-12-16T10:44:52;0.40;90.40
43920;DHT22;29578;51.946;5.874;2022-12-16T10:47:39;0.50;90.30
43920;DHT22;29578;51.946;5.874;2022-12-16T10:50:19;0.60;90.30
43920;DHT22;29578;51.946;5.874;2022-12-16T10:53:03;0.60;90.30
43920;DHT22;29578;51.946;5.874;2022-12-16T10:59:12;0.70;90.30
43920;DHT22;29578;51.946;5.874;2022-12-16T11:02:17;0.80;90.20
43920;DHT22;29578;51.946;5.874;2022-12-16T11:05:00;0.90;90.20
43920;DHT22;29578;51.946;5.874;2022-12-16T11:07:52;1.00;90.20
43920;DHT22;29578;51.946;5.874;2022-12-16T11:10:38;1.00;90.20
43920;DHT22;29578;51.946;5.874;2022-12-16T11:13:24;1.00;90.10
43920;DHT22;29578;51.946;5.874;2022-12-16T11:16:12;1.10;90.10
43920;DHT22;29578;51.946;5.874;2022-12-16T11:18:50;1.10;90.10
43920;DHT22;29578;51.946;5.874;2022-12-16T11:21:31;1.20;90.10
43920;DHT22;29578;51.946;5.874;2022-12-16T11:24:15;1.20;90.10
43920;DHT22;29578;51.946;5.874;2022-12-16T11:27:04;1.30;90.20
43920;DHT22;29578;51.946;5.874;2022-12-16T11:29:52;1.30;90.20
43920;DHT22;29578;51.946;5.874;2022-12-16T11:32:31;1.30;90.20
43920;DHT22;29578;51.946;5.874;2022-12-16T11:35:17;1.30;90.20
43920;DHT22;29578;51.946;5.874;2022-12-16T11:37:58;1.30;90.20
43920;DHT22;29578;51.946;5.874;2022-12-16T11:40:44;1.30;90.20
43920;DHT22;29578;51.946;5.874;2022-12-16T11:43:30;1.40;90.20
43920;DHT22;29578;51.946;5.874;2022-12-16T11:46:25;1.40;90.20
43920;DHT22;29578;51.946;5.874;2022-12-16T11:49:08;1.50;90.20
43920;DHT22;29578;51.946;5.874;2022-12-16T11:51:56;1.50;90.20
43920;DHT22;29578;51.946;5.874;2022-12-16T11:54:36;1.60;90.20
43920;DHT22;29578;51.946;5.874;2022-12-16T11:57:20;1.70;90.10
43920;DHT22;29578;51.946;5.874;2022-12-16T12:00:06;1.80;90.10
43920;DHT22;29578;51.946;5.874;2022-12-16T12:03:03;1.80;90.00
43920;DHT22;29578;51.946;5.874;2022-12-16T12:06:08;2.00;90.00
43920;DHT22;29578;51.946;5.874;2022-12-16T12:09:05;1.90;90.00
43920;DHT22;29578;51.946;5.874;2022-12-16T12:12:18;1.90;90.00
43920;DHT22;29578;51.946;5.874;2022-12-16T12:25:11;1.90;90.10
43920;DHT22;29578;51.946;5.874;2022-12-16T12:28:19;1.90;90.10
43920;DHT22;29578;51.946;5.874;2022-12-16T12:31:52;1.90;90.40
43920;DHT22;29578;51.946;5.874;2022-12-16T12:38:01;1.90;90.10
43920;DHT22;29578;51.946;5.874;2022-12-16T12:41:13;2.00;90.20
43920;DHT22;29578;51.946;5.874;2022-12-16T12:47:22;1.90;90.20
43920;DHT22;29578;51.946;5.874;2022-12-16T12:50:37;2.00;90.20
43920;DHT22;29578;51.946;5.874;2022-12-16T12:53:29;2.00;90.20
43920;DHT22;29578;51.946;5.874;2022-12-16T12:56:45;1.90;90.20
43920;DHT22;29578;51.946;5.874;2022-12-16T12:59:38;2.00;90.30
43920;DHT22;29578;51.946;5.874;2022-12-16T13:02:23;1.90;90.30
43920;DHT22;29578;51.946;5.874;2022-12-16T13:05:12;1.90;90.30
43920;DHT22;29578;51.946;5.874;2022-12-16T13:07:49;1.90;90.30
43920;DHT22;29578;51.946;5.874;2022-12-16T13:10:33;1.90;90.40
43920;DHT22;29578;51.946;5.874;2022-12-16T13:13:29;1.90;90.40
43920;DHT22;29578;51.946;5.874;2022-12-16T13:19:39;1.90;90.40
43920;DHT22;29578;51.946;5.874;2022-12-16T13:22:35;1.90;90.40
43920;DHT22;29578;51.946;5.874;2022-12-16T13:25:43;2.00;90.50
43920;DHT22;29578;51.946;5.874;2022-12-16T13:28:42;1.90;90.50
43920;DHT22;29578;51.946;5.874;2022-12-16T13:31:59;1.90;90.50
43920;DHT22;29578;51.946;5.874;2022-12-16T13:34:41;1.90;90.80
43920;DHT22;29578;51.946;5.874;2022-12-16T13:37:24;2.00;90.50
43920;DHT22;29578;51.946;5.874;2022-12-16T13:40:12;1.80;90.50
43920;DHT22;29578;51.946;5.874;2022-12-16T13:42:57;1.90;90.50
43920;DHT22;29578;51.946;5.874;2022-12-16T13:46:11;1.90;90.50
43920;DHT22;29578;51.946;5.874;2022-12-16T13:48:42;1.90;90.60
43920;DHT22;29578;51.946;5.874;2022-12-16T13:51:54;1.90;90.60
43920;DHT22;29578;51.946;5.874;2022-12-16T13:54:38;1.90;90.60
43920;DHT22;29578;51.946;5.874;2022-12-16T13:57:24;2.00;90.60
43920;DHT22;29578;51.946;5.874;2022-12-16T14:00:22;1.90;90.60
43920;DHT22;29578;51.946;5.874;2022-12-16T14:03:10;2.00;90.70
43920;DHT22;29578;51.946;5.874;2022-12-16T14:05:53;1.90;90.70
43920;DHT22;29578;51.946;5.874;2022-12-16T14:08:39;1.90;90.70
43920;DHT22;29578;51.946;5.874;2022-12-16T14:11:35;1.80;90.70
43920;DHT22;29578;51.946;5.874;2022-12-16T14:14:28;1.80;90.70
43920;DHT22;29578;51.946;5.874;2022-12-16T14:17:23;1.90;90.70
43920;DHT22;29578;51.946;5.874;2022-12-16T14:20:40;1.80;90.70
43920;DHT22;29578;51.946;5.874;2022-12-16T14:23:50;1.90;90.80
43920;DHT22;29578;51.946;5.874;2022-12-16T14:27:17;1.80;90.80
43920;DHT22;29578;51.946;5.874;2022-12-16T14:30:14;1.80;90.80
43920;DHT22;29578;51.946;5.874;2022-12-16T14:33:28;1.80;90.80
43920;DHT22;29578;51.946;5.874;2022-12-16T14:36:27;1.80;90.80
43920;DHT22;29578;51.946;5.874;2022-12-16T14:39:13;1.80;90.80
43920;DHT22;29578;51.946;5.874;2022-12-16T14:42:25;1.80;90.80
43920;DHT22;29578;51.946;5.874;2022-12-16T14:45:32;1.80;90.80
43920;DHT22;29578;51.946;5.874;2022-12-16T14:48:25;1.80;90.80
43920;DHT22;29578;51.946;5.874;2022-12-16T14:51:24;1.80;91.10
43920;DHT22;29578;51.946;5.874;2022-12-16T14:54:33;1.80;90.90
43920;DHT22;29578;51.946;5.874;2022-12-16T14:57:18;1.80;90.90
43920;DHT22;29578;51.946;5.874;2022-12-16T15:00:16;1.80;90.90
43920;DHT22;29578;51.946;5.874;2022-12-16T15:03:12;1.70;90.90
43920;DHT22;29578;51.946;5.874;2022-12-16T15:05:57;1.80;91.00
43920;DHT22;29578;51.946;5.874;2022-12-16T15:08:48;1.70;90.90
43920;DHT22;29578;51.946;5.874;2022-12-16T15:11:27;1.60;90.90
43920;DHT22;29578;51.946;5.874;2022-12-16T15:14:11;1.70;91.00
43920;DHT22;29578;51.946;5.874;2022-12-16T15:17:27;1.70;91.00
43920;DHT22;29578;51.946;5.874;2022-12-16T15:20:17;1.70;91.00
43920;DHT22;29578;51.946;5.874;2022-12-16T15:22:58;1.70;91.00
43920;DHT22;29578;51.946;5.874;2022-12-16T15:25:38;1.60;91.00
43920;DHT22;29578;51.946;5.874;2022-12-16T15:28:35;1.70;91.00
43920;DHT22;29578;51.946;5.874;2022-12-16T15:31:30;1.60;91.00
43920;DHT22;29578;51.946;5.874;2022-12-16T15:34:28;1.60;91.00
43920;DHT22;29578;51.946;5.874;2022-12-16T15:37:29;1.70;91.10
43920;DHT22;29578;51.946;5.874;2022-12-16T15:40:27;1.60;91.10
43920;DHT22;29578;51.946;5.874;2022-12-16T15:43:28;1.60;91.10
43920;DHT22;29578;51.946;5.874;2022-12-16T15:46:26;1.60;91.10
43920;DHT22;29578;51.946;5.874;2022-12-16T15:49:37;1.60;91.10
43920;DHT22;29578;51.946;5.874;2022-12-16T15:52:36;1.70;91.10
43920;DHT22;29578;51.946;5.874;2022-12-16T15:55:23;1.60;91.10
43920;DHT22;29578;51.946;5.874;2022-12-16T15:58:10;1.70;91.10
43920;DHT22;29578;51.946;5.874;2022-12-16T16:00:56;1.70;91.10
43920;DHT22;29578;51.946;5.874;2022-12-16T16:03:48;1.70;91.20
43920;DHT22;29578;51.946;5.874;2022-12-16T16:06:30;1.60;91.20
43920;DHT22;29578;51.946;5.874;2022-12-16T16:09:13;1.60;91.20
43920;DHT22;29578;51.946;5.874;2022-12-16T16:11:51;1.60;91.20
43920;DHT22;29578;51.946;5.874;2022-12-16T16:14:31;1.60;91.20
43920;DHT22;29578;51.946;5.874;2022-12-16T16:17:19;1.60;91.20
43920;DHT22;29578;51.946;5.874;2022-12-16T16:20:27;1.70;91.30
43920;DHT22;29578;51.946;5.874;2022-12-16T16:23:54;1.60;91.20
43920;DHT22;29578;51.946;5.874;2022-12-16T16:26:47;1.60;91.30
43920;DHT22;29578;51.946;5.874;2022-12-16T16:30:10;1.60;91.20
43920;DHT22;29578;51.946;5.874;2022-12-16T16:36:39;1.50;91.20
43920;DHT22;29578;51.946;5.874;2022-12-16T16:39:25;1.60;91.30
43920;DHT22;29578;51.946;5.874;2022-12-16T16:42:35;1.60;91.20
43920;DHT22;29578;51.946;5.874;2022-12-16T16:58:29;1.50;91.30
43920;DHT22;29578;51.946;5.874;2022-12-16T17:01:13;1.60;91.30
43920;DHT22;29578;51.946;5.874;2022-12-16T17:03:59;1.50;91.30
43920;DHT22;29578;51.946;5.874;2022-12-16T17:06:39;1.60;91.30
43920;DHT22;29578;51.946;5.874;2022-12-16T17:09:19;1.60;91.30
43920;DHT22;29578;51.946;5.874;2022-12-16T17:11:59;1.60;91.40
43920;DHT22;29578;51.946;5.874;2022-12-16T17:14:39;1.50;91.30
43920;DHT22;29578;51.946;5.874;2022-12-16T17:17:20;1.60;91.40
43920;DHT22;29578;51.946;5.874;2022-12-16T17:20:00;1.50;91.40
43920;DHT22;29578;51.946;5.874;2022-12-16T17:22:40;1.60;91.40
43920;DHT22;29578;51.946;5.874;2022-12-16T17:25:20;1.60;91.40
43920;DHT22;29578;51.946;5.874;2022-12-16T17:28:01;1.60;91.40
43920;DHT22;29578;51.946;5.874;2022-12-16T17:30:40;1.60;91.40
43920;DHT22;29578;51.946;5.874;2022-12-16T17:33:21;1.60;91.40
43920;DHT22;29578;51.946;5.874;2022-12-16T17:36:01;1.60;91.40
43920;DHT22;29578;51.946;5.874;2022-12-16T17:38:42;1.50;91.40
43920;DHT22;29578;51.946;5.874;2022-12-16T17:41:21;1.50;91.40
43920;DHT22;29578;51.946;5.874;2022-12-16T17:44:01;1.50;91.50
43920;DHT22;29578;51.946;5.874;2022-12-16T17:46:41;1.60;91.50
43920;DHT22;29578;51.946;5.874;2022-12-16T17:49:21;1.50;91.50
43920;DHT22;29578;51.946;5.874;2022-12-16T17:52:02;1.50;91.50
43920;DHT22;29578;51.946;5.874;2022-12-16T17:54:41;1.50;91.40
43920;DHT22;29578;51.946;5.874;2022-12-16T17:57:22;1.60;91.50
43920;DHT22;29578;51.946;5.874;2022-12-16T18:00:02;1.60;91.50
43920;DHT22;29578;51.946;5.874;2022-12-16T18:02:42;1.60;91.50
43920;DHT22;29578;51.946;5.874;2022-12-16T18:05:22;1.60;91.50
43920;DHT22;29578;51.946;5.874;2022-12-16T18:08:02;1.70;91.60
43920;DHT22;29578;51.946;5.874;2022-12-16T18:10:42;1.50;91.50
43920;DHT22;29578;51.946;5.874;2022-12-16T18:13:22;1.60;91.50
43920;DHT22;29578;51.946;5.874;2022-12-16T18:16:02;1.60;91.50
43920;DHT22;29578;51.946;5.874;2022-12-16T18:18:47;1.70;91.50
43920;DHT22;29578;51.946;5.874;2022-12-16T18:21:23;1.60;91.50
43920;DHT22;29578;51.946;5.874;2022-12-16T18:24:06;1.60;91.50
43920;DHT22;29578;51.946;5.874;2022-12-16T18:26:43;1.50;91.50
43920;DHT22;29578;51.946;5.874;2022-12-16T18:29:24;1.50;91.50
43920;DHT22;29578;51.946;5.874;2022-12-16T18:32:04;1.50;91.50
43920;DHT22;29578;51.946;5.874;2022-12-16T18:34:44;1.50;91.60
43920;DHT22;29578;51.946;5.874;2022-12-16T18:37:24;1.60;91.60
43920;DHT22;29578;51.946;5.874;2022-12-16T18:40:05;1.50;91.60
43920;DHT22;29578;51.946;5.874;2022-12-16T18:42:44;1.50;91.60